createdAt,value
2018-06-10T00:00:46.016Z,24.80
2018-06-10T00:03:14.786Z,24.80
2018-06-10T00:05:43.537Z,24.70
2018-06-10T00:08:12.234Z,24.70
2018-06-10T00:10:40.911Z,24.60
2018-06-10T00:13:09.591Z,24.50
2018-06-10T00:15:38.280Z,24.40
2018-06-10T00:18:07.003Z,24.30
2018-06-10T00:20:35.668Z,24.30
2018-06-10T00:23:04.415Z,24.10
2018-06-10T00:25:33.110Z,24.10
2018-06-10T00:28:01.819Z,24.10
2018-06-10T00:30:30.548Z,24.10
2018-06-10T00:32:59.225Z,24.00
2018-06-10T00:35:27.930Z,24.00
2018-06-10T00:37:57.416Z,24.00
2018-06-10T00:40:26.069Z,24.00
2018-06-10T00:42:54.778Z,24.10
2018-06-10T00:45:23.478Z,24.10
2018-06-10T00:47:52.203Z,24.10
2018-06-10T00:50:20.925Z,24.00
2018-06-10T00:52:49.658Z,24.00
2018-06-10T00:57:46.824Z,24.00
2018-06-10T01:00:15.534Z,24.00
2018-06-10T01:02:44.215Z,23.90
2018-06-10T01:05:13.037Z,23.90
2018-06-10T01:07:42.262Z,23.80
2018-06-10T01:10:10.956Z,23.90
2018-06-10T01:12:39.643Z,23.80
2018-06-10T01:15:08.374Z,23.80
2018-06-10T01:17:37.092Z,23.80
2018-06-10T01:20:05.810Z,23.80
2018-06-10T01:22:34.527Z,23.80
2018-06-10T01:27:31.780Z,23.80
2018-06-10T01:32:28.866Z,23.90
2018-06-10T01:39:54.434Z,23.80
2018-06-10T01:42:23.110Z,23.80
2018-06-10T01:44:51.838Z,23.70
2018-06-10T01:47:20.521Z,23.70
2018-06-10T01:49:49.293Z,23.70
2018-06-10T01:52:17.965Z,23.70
2018-06-10T01:54:46.673Z,23.70
2018-06-10T01:57:15.345Z,23.70
2018-06-10T01:59:44.705Z,23.70
2018-06-10T02:02:13.422Z,23.60
2018-06-10T02:04:42.102Z,23.50
2018-06-10T02:07:10.774Z,23.50
2018-06-10T02:09:39.469Z,23.40
2018-06-10T02:14:36.609Z,23.30
2018-06-10T02:17:05.310Z,23.30
2018-06-10T02:19:33.989Z,23.30
2018-06-10T02:22:02.670Z,23.30
2018-06-10T02:24:31.400Z,23.30
2018-06-10T02:27:00.093Z,23.30
2018-06-10T02:29:28.860Z,23.30
2018-06-10T02:31:57.543Z,23.30
2018-06-10T02:34:26.266Z,23.30
2018-06-10T02:36:54.943Z,23.30
2018-06-10T02:39:23.650Z,23.20
2018-06-10T02:41:52.349Z,23.20
2018-06-10T02:44:21.046Z,23.20
2018-06-10T02:46:49.718Z,23.10
2018-06-10T02:49:18.430Z,23.00
2018-06-10T02:51:47.086Z,23.00
2018-06-10T02:54:15.785Z,23.00
2018-06-10T02:56:44.490Z,23.00
2018-06-10T03:01:41.766Z,23.00
2018-06-10T03:04:10.427Z,22.90
2018-06-10T03:06:39.778Z,22.90
2018-06-10T03:09:08.455Z,22.80
2018-06-10T03:11:37.159Z,22.80
2018-06-10T03:14:05.867Z,22.80
2018-06-10T03:16:34.562Z,22.80
2018-06-10T03:19:03.273Z,22.70
2018-06-10T03:21:31.953Z,22.70
2018-06-10T03:24:01.450Z,22.60
2018-06-10T03:26:30.174Z,22.50
2018-06-10T03:28:58.826Z,22.60
2018-06-10T03:31:27.538Z,22.50
2018-06-10T03:33:56.197Z,22.50
2018-06-10T03:36:24.894Z,22.40
2018-06-10T03:38:53.550Z,22.40
2018-06-10T03:41:22.223Z,22.40
2018-06-10T03:43:50.902Z,22.40
2018-06-10T03:46:19.621Z,22.40
2018-06-10T03:48:48.309Z,19.30
2018-06-10T03:51:17.000Z,22.40
2018-06-10T03:53:45.683Z,22.30
2018-06-10T03:56:14.372Z,22.30
2018-06-10T03:58:43.057Z,22.30
2018-06-10T04:01:11.757Z,22.30
2018-06-10T04:03:40.473Z,22.20
2018-06-10T04:08:38.458Z,22.30
2018-06-10T04:13:35.535Z,22.30
2018-06-10T04:16:04.205Z,22.30
2018-06-10T04:18:32.925Z,22.30
2018-06-10T04:21:01.622Z,22.40
2018-06-10T04:23:30.312Z,22.40
2018-06-10T04:28:27.497Z,22.40
2018-06-10T04:30:56.217Z,22.30
2018-06-10T04:33:24.870Z,22.30
2018-06-10T04:35:54.434Z,22.30
2018-06-10T04:38:23.137Z,22.30
2018-06-10T04:40:51.888Z,22.30
2018-06-10T04:43:20.621Z,22.30
2018-06-10T04:45:49.314Z,22.30
2018-06-10T04:48:18.000Z,22.30
2018-06-10T04:50:46.678Z,22.30
2018-06-10T04:55:43.838Z,22.20
2018-06-10T04:58:13.006Z,22.20
2018-06-10T05:00:41.690Z,22.20
2018-06-10T05:03:10.358Z,22.10
2018-06-10T05:05:39.091Z,22.20
2018-06-10T05:08:07.813Z,22.10
2018-06-10T05:10:36.503Z,22.10
2018-06-10T05:13:05.178Z,22.10
2018-06-10T05:15:33.865Z,22.10
2018-06-10T05:18:02.562Z,22.20
2018-06-10T05:22:59.694Z,22.30
2018-06-10T05:25:28.361Z,22.30
2018-06-10T05:27:57.046Z,22.40
2018-06-10T05:30:25.835Z,22.40
2018-06-10T05:32:54.533Z,22.50
2018-06-10T05:35:23.238Z,22.40
2018-06-10T05:37:51.913Z,22.40
2018-06-10T05:40:20.629Z,22.40
2018-06-10T05:42:49.425Z,22.40
2018-06-10T05:45:18.094Z,22.40
2018-06-10T05:47:46.778Z,22.40
2018-06-10T05:50:15.478Z,22.30
2018-06-10T05:52:44.146Z,22.30
2018-06-10T05:55:12.877Z,22.20
2018-06-10T05:57:41.560Z,22.10
2018-06-10T06:00:10.309Z,22.10
2018-06-10T06:02:39.397Z,22.00
2018-06-10T06:05:08.282Z,22.00
2018-06-10T06:07:37.013Z,22.00
2018-06-10T06:12:34.122Z,22.00
2018-06-10T06:15:02.810Z,22.00
2018-06-10T06:17:31.483Z,22.20
2018-06-10T06:20:00.173Z,22.40
2018-06-10T06:22:28.932Z,22.40
2018-06-10T06:24:57.576Z,22.50
2018-06-10T06:27:26.314Z,22.60
2018-06-10T06:29:54.965Z,22.70
2018-06-10T06:32:23.665Z,22.80
2018-06-10T06:39:49.188Z,23.40
2018-06-10T06:42:17.988Z,23.70
2018-06-10T06:47:15.243Z,24.20
2018-06-10T06:49:43.932Z,24.30
2018-06-10T06:52:12.602Z,24.40
2018-06-10T06:54:41.268Z,24.50
2018-06-10T06:57:10.533Z,24.70
2018-06-10T06:59:39.190Z,24.90
2018-06-10T07:02:07.857Z,25.10
2018-06-10T07:04:36.531Z,25.30
2018-06-10T07:07:05.268Z,25.40
2018-06-10T07:09:34.500Z,25.50
2018-06-10T07:12:03.166Z,25.50
2018-06-10T07:17:00.337Z,25.70
2018-06-10T07:19:29.005Z,26.00
2018-06-10T07:21:57.689Z,26.00
2018-06-10T07:24:26.382Z,26.30
2018-06-10T07:29:24.167Z,26.00
2018-06-10T07:31:52.829Z,26.00
2018-06-10T07:34:21.539Z,25.80
2018-06-10T07:36:50.213Z,25.30
2018-06-10T07:41:47.281Z,24.80
2018-06-10T07:44:15.976Z,24.70
2018-06-10T07:46:44.674Z,24.70
2018-06-10T07:49:13.941Z,24.50
2018-06-10T07:54:11.054Z,24.40
2018-06-10T07:56:39.758Z,24.40
2018-06-10T07:59:08.482Z,24.20
2018-06-10T08:04:05.619Z,24.00
2018-06-10T08:06:34.371Z,24.00
2018-06-10T08:09:03.271Z,23.80
2018-06-10T08:11:31.986Z,23.80
2018-06-10T08:14:00.677Z,23.80
2018-06-10T08:16:29.374Z,23.80
2018-06-10T08:18:58.045Z,23.80
2018-06-10T08:21:26.747Z,24.00
2018-06-10T08:23:55.437Z,24.10
2018-06-10T08:26:24.127Z,24.10
2018-06-10T08:28:52.798Z,24.20
2018-06-10T08:31:21.482Z,24.20
2018-06-10T08:33:50.223Z,24.30
2018-06-10T08:38:47.329Z,24.40
2018-06-10T08:43:44.442Z,24.50
2018-06-10T08:48:41.537Z,24.30
2018-06-10T08:51:10.225Z,24.20
2018-06-10T08:53:38.981Z,24.30
2018-06-10T08:56:07.646Z,24.30
2018-06-10T08:58:38.715Z,24.50
2018-06-10T09:01:07.421Z,24.50
2018-06-10T09:03:36.144Z,24.40
2018-06-10T09:06:04.830Z,24.30
2018-06-10T09:08:33.649Z,24.30
2018-06-10T09:11:02.339Z,24.20
2018-06-10T09:13:31.031Z,24.10
2018-06-10T09:15:59.712Z,24.00
2018-06-10T09:20:56.813Z,23.80
2018-06-10T09:23:25.542Z,23.80
2018-06-10T09:25:54.262Z,23.70
2018-06-10T09:28:22.938Z,23.60
2018-06-10T09:30:51.657Z,23.60
2018-06-10T09:33:21.057Z,23.60
2018-06-10T09:35:49.797Z,23.50
2018-06-10T09:38:18.456Z,23.50
2018-06-10T09:40:47.383Z,23.40
2018-06-10T09:43:16.098Z,23.40
2018-06-10T09:45:44.889Z,23.40
2018-06-10T09:48:13.605Z,23.40
2018-06-10T09:50:42.393Z,23.40
2018-06-10T09:53:11.278Z,23.30
2018-06-10T09:55:40.268Z,23.30
2018-06-10T09:58:08.978Z,23.30
2018-06-10T10:00:37.717Z,23.40
2018-06-10T10:03:06.460Z,23.30
2018-06-10T10:05:35.246Z,23.40
2018-06-10T10:08:04.028Z,23.30
2018-06-10T10:10:32.689Z,23.20
2018-06-10T10:13:01.582Z,23.10
2018-06-10T10:15:31.328Z,23.10
2018-06-10T10:18:00.094Z,23.10
2018-06-10T10:22:57.973Z,22.90
2018-06-10T10:25:26.735Z,22.90
2018-06-10T10:27:55.420Z,22.80
2018-06-10T10:30:24.730Z,22.80
2018-06-10T10:32:53.493Z,22.90
2018-06-10T10:35:23.217Z,22.90
2018-06-10T10:37:51.943Z,23.00
2018-06-10T10:40:20.782Z,23.00
2018-06-10T10:45:17.868Z,22.90
2018-06-10T10:47:46.645Z,22.90
2018-06-10T10:50:15.339Z,22.90
2018-06-10T10:52:44.114Z,23.00
2018-06-10T10:55:13.042Z,23.00
2018-06-10T10:57:41.762Z,23.10
2018-06-10T11:02:38.939Z,23.20
2018-06-10T11:07:36.169Z,23.30
2018-06-10T11:10:04.856Z,23.50
2018-06-10T11:12:33.699Z,23.70
2018-06-10T11:15:02.581Z,23.70
2018-06-10T11:17:31.518Z,23.60
2018-06-10T11:20:00.217Z,23.80
2018-06-10T11:22:28.930Z,23.90
2018-06-10T11:24:57.682Z,26.10
2018-06-10T11:27:26.405Z,24.00
2018-06-10T11:29:55.084Z,24.50
2018-06-10T11:32:23.785Z,24.70
2018-06-10T11:37:20.906Z,24.60
2018-06-10T11:39:49.649Z,24.60
2018-06-10T11:42:18.379Z,24.60
2018-06-10T11:44:47.692Z,24.90
2018-06-10T11:47:16.381Z,25.10
2018-06-10T11:49:45.621Z,25.40
2018-06-10T11:52:14.444Z,25.60
2018-06-10T11:54:43.849Z,25.70
2018-06-10T11:57:13.565Z,25.90
2018-06-10T11:59:42.612Z,26.00
2018-06-10T12:02:11.381Z,26.10
2018-06-10T12:04:40.193Z,26.30
2018-06-10T12:09:37.409Z,26.90
2018-06-10T12:12:06.098Z,27.50
2018-06-10T12:14:34.813Z,28.10
2018-06-10T12:17:04.797Z,28.40
2018-06-10T12:22:02.877Z,28.90
2018-06-10T12:24:31.684Z,28.90
2018-06-10T12:27:00.321Z,28.80
2018-06-10T12:29:29.133Z,28.80
2018-06-10T12:31:57.884Z,28.70
2018-06-10T12:34:26.597Z,28.50
2018-06-10T12:36:55.282Z,28.50
2018-06-10T12:39:24.001Z,28.40
2018-06-10T12:41:52.654Z,28.20
2018-06-10T12:44:21.440Z,28.20
2018-06-10T12:46:50.156Z,28.20
2018-06-10T12:49:19.010Z,28.00
2018-06-10T12:54:16.075Z,27.80
2018-06-10T12:56:44.765Z,27.50
2018-06-10T13:07:20.339Z,27.40
2018-06-10T13:09:49.056Z,27.60
2018-06-10T13:12:17.724Z,27.60
2018-06-10T13:14:46.434Z,27.50
2018-06-10T13:17:15.621Z,27.40
2018-06-10T13:19:44.350Z,27.30
2018-06-10T13:22:13.035Z,27.00
2018-06-10T13:24:41.756Z,26.80
2018-06-10T13:29:38.869Z,26.20
2018-06-10T13:32:08.742Z,25.90
2018-06-10T13:34:37.453Z,25.90
2018-06-10T13:37:06.182Z,26.00
2018-06-10T13:39:35.593Z,29.50
2018-06-10T13:42:04.264Z,26.40
2018-06-10T13:44:32.985Z,26.50
2018-06-10T13:47:01.633Z,26.70
2018-06-10T13:49:30.336Z,26.70
2018-06-10T13:51:59.095Z,26.80
2018-06-10T13:54:27.827Z,26.80
2018-06-10T13:56:56.850Z,26.90
2018-06-10T13:59:25.601Z,27.00
2018-06-10T14:01:54.215Z,27.10
2018-06-10T14:06:51.332Z,27.60
2018-06-10T14:09:20.207Z,27.80
2018-06-10T14:11:48.864Z,27.80
2018-06-10T14:14:17.557Z,27.80
2018-06-10T14:16:46.257Z,27.50
2018-06-10T14:19:14.990Z,27.40
2018-06-10T14:21:43.671Z,27.30
2018-06-10T14:26:40.774Z,27.30
2018-06-10T14:29:09.503Z,27.10
2018-06-10T14:31:38.287Z,27.00
2018-06-10T14:34:06.977Z,26.90
2018-06-10T14:36:36.101Z,26.90
2018-06-10T14:41:35.165Z,26.80
2018-06-10T14:44:04.332Z,26.80
2018-06-10T14:46:32.952Z,26.70
2018-06-10T14:49:01.707Z,26.70
2018-06-10T14:51:30.468Z,26.70
2018-06-10T14:56:27.634Z,26.70
2018-06-10T14:58:56.316Z,26.70
2018-06-10T15:01:25.201Z,26.60
2018-06-10T15:03:53.868Z,26.60
2018-06-10T15:08:50.893Z,26.60
2018-06-10T15:11:19.601Z,26.70
2018-06-10T15:13:48.321Z,26.70
2018-06-10T15:16:17.057Z,26.60
2018-06-10T15:18:45.758Z,25.90
2018-06-10T15:23:42.909Z,26.20
2018-06-10T15:26:11.609Z,26.20
2018-06-10T15:28:40.325Z,26.20
2018-06-10T15:31:09.094Z,26.20
2018-06-10T15:33:37.769Z,26.10
2018-06-10T15:41:03.261Z,26.30
2018-06-10T15:43:31.932Z,26.10
2018-06-10T15:46:00.603Z,26.10
2018-06-10T15:48:29.346Z,26.00
2018-06-10T15:50:58.168Z,25.90
2018-06-10T15:53:26.845Z,25.90
2018-06-10T15:55:55.558Z,25.90
2018-06-10T15:58:24.206Z,25.90
2018-06-10T16:00:52.894Z,26.00
2018-06-10T16:03:21.626Z,26.00
2018-06-10T16:05:50.298Z,25.80
2018-06-10T16:08:18.972Z,25.70
2018-06-10T16:10:47.673Z,25.80
2018-06-10T16:15:44.774Z,25.80
2018-06-10T16:20:41.939Z,25.90
2018-06-10T16:23:10.692Z,26.00
2018-06-10T16:25:39.368Z,25.90
2018-06-10T16:28:08.124Z,25.80
2018-06-10T16:33:06.747Z,25.80
2018-06-10T16:35:35.474Z,25.80
2018-06-10T16:40:32.889Z,25.60
2018-06-10T16:43:01.705Z,25.60
2018-06-10T16:47:58.923Z,25.50
2018-06-10T16:50:27.641Z,25.60
2018-06-10T16:55:24.811Z,25.80
2018-06-10T16:57:53.554Z,25.90
2018-06-10T17:00:22.367Z,25.90
2018-06-10T17:02:51.017Z,25.70
2018-06-10T17:05:19.715Z,25.60
2018-06-10T17:07:48.385Z,25.40
2018-06-10T17:10:17.120Z,25.30
2018-06-10T17:12:45.863Z,25.20
2018-06-10T17:15:15.234Z,25.20
2018-06-10T17:17:43.913Z,25.20
2018-06-10T17:20:12.633Z,23.10
2018-06-10T17:22:41.346Z,25.20
2018-06-10T17:30:07.000Z,25.10
2018-06-10T17:32:35.630Z,25.10
2018-06-10T17:35:04.359Z,25.00
2018-06-10T17:37:33.122Z,25.00
2018-06-10T17:40:01.818Z,25.00
2018-06-10T17:42:30.517Z,24.90
2018-06-10T17:47:27.692Z,24.90
2018-06-10T17:49:56.364Z,24.90
2018-06-10T17:52:25.117Z,24.90
2018-06-10T17:54:53.774Z,24.90
2018-06-10T17:57:22.476Z,24.90
2018-06-10T17:59:51.145Z,24.90
2018-06-10T18:02:19.825Z,24.90
2018-06-10T18:04:49.593Z,24.90
2018-06-10T18:07:18.346Z,24.80
2018-06-10T18:09:47.056Z,24.70
2018-06-10T18:12:15.735Z,24.70
2018-06-10T18:14:44.417Z,24.70
2018-06-10T18:17:13.112Z,24.60
2018-06-10T18:19:41.809Z,24.60
2018-06-10T18:22:10.494Z,24.60
2018-06-10T18:24:39.275Z,24.50
2018-06-10T18:27:08.017Z,24.50
2018-06-10T18:29:36.706Z,24.40
2018-06-10T18:32:05.410Z,24.30
2018-06-10T18:34:34.167Z,24.30
2018-06-10T18:37:02.840Z,24.10
2018-06-10T18:41:59.932Z,24.10
2018-06-10T18:44:28.593Z,24.00
2018-06-10T18:49:25.698Z,23.80
2018-06-10T18:51:54.366Z,23.80
2018-06-10T18:54:23.101Z,23.80
2018-06-10T18:56:51.789Z,23.60
2018-06-10T18:59:20.469Z,23.60
2018-06-10T19:01:49.211Z,23.50
2018-06-10T19:04:18.000Z,23.40
2018-06-10T19:06:46.735Z,23.40
2018-06-10T19:09:15.381Z,23.40
2018-06-10T19:11:44.627Z,23.30
2018-06-10T19:14:13.365Z,23.20
2018-06-10T19:16:42.123Z,23.20
2018-06-10T19:19:10.807Z,23.20
2018-06-10T19:21:39.513Z,23.20
2018-06-10T19:24:09.001Z,23.10
2018-06-10T19:26:37.677Z,23.00
2018-06-10T19:29:06.336Z,22.90
2018-06-10T19:31:35.436Z,22.90
2018-06-10T19:34:04.148Z,22.80
2018-06-10T19:36:32.878Z,22.80
2018-06-10T19:41:29.961Z,22.60
2018-06-10T19:43:58.711Z,22.60
2018-06-10T19:48:55.767Z,22.40
2018-06-10T19:53:52.912Z,22.30
2018-06-10T19:56:21.585Z,22.20
2018-06-10T19:58:50.259Z,22.10
2018-06-10T20:01:18.943Z,22.10
2018-06-10T20:03:47.667Z,22.00
2018-06-10T20:06:17.487Z,21.00
2018-06-10T20:11:14.574Z,21.80
2018-06-10T20:13:43.333Z,21.60
2018-06-10T20:16:12.035Z,21.60
2018-06-10T20:18:40.722Z,21.50
2018-06-10T20:23:38.118Z,21.50
2018-06-10T20:26:06.929Z,21.40
2018-06-10T20:31:04.314Z,21.30
2018-06-10T20:33:33.307Z,21.20
2018-06-10T20:36:02.397Z,21.20
2018-06-10T20:38:31.480Z,21.10
2018-06-10T20:41:00.373Z,21.00
2018-06-10T20:43:29.078Z,21.00
2018-06-10T20:45:57.856Z,20.90
2018-06-10T20:48:26.664Z,20.90
2018-06-10T20:50:55.350Z,20.90
2018-06-10T20:53:24.110Z,20.90
2018-06-10T21:00:49.767Z,20.70
2018-06-10T21:03:18.441Z,20.70
2018-06-10T21:08:15.598Z,20.60
2018-06-10T21:10:44.359Z,20.50
2018-06-10T21:15:41.431Z,20.30
2018-06-10T21:18:10.149Z,20.40
2018-06-10T21:20:38.821Z,20.20
2018-06-10T21:23:07.533Z,20.20
2018-06-10T21:25:36.266Z,20.10
2018-06-10T21:30:33.454Z,20.10
2018-06-10T21:35:30.585Z,20.00
2018-06-10T21:37:59.396Z,20.00
2018-06-10T21:45:25.062Z,19.90
2018-06-10T21:47:53.780Z,19.80
2018-06-10T21:52:50.949Z,19.70
2018-06-10T21:55:19.670Z,19.60
2018-06-10T21:57:48.395Z,19.60
2018-06-10T22:00:25.345Z,19.50
2018-06-10T22:07:50.842Z,19.40
2018-06-10T22:10:19.618Z,19.40
2018-06-10T22:12:48.345Z,19.30
2018-06-10T22:15:17.072Z,19.40
2018-06-10T22:17:45.819Z,19.40
2018-06-10T22:20:14.501Z,19.40
2018-06-10T22:22:43.237Z,19.40
2018-06-10T22:25:11.936Z,19.40
2018-06-10T22:27:40.657Z,19.40
2018-06-10T22:30:09.333Z,19.40
2018-06-10T22:32:38.074Z,19.30
2018-06-10T22:35:06.850Z,19.20
2018-06-10T22:37:35.561Z,19.20
2018-06-10T22:40:04.303Z,19.10
2018-06-10T22:42:33.019Z,19.10
2018-06-10T22:45:01.792Z,19.10
2018-06-10T22:47:30.523Z,19.10
2018-06-10T22:49:59.217Z,19.00
2018-06-10T22:52:27.909Z,19.00
2018-06-10T22:54:56.617Z,18.90
2018-06-10T22:57:25.330Z,18.90
2018-06-10T22:59:54.024Z,18.90
2018-06-10T23:02:22.725Z,18.80
2018-06-10T23:04:51.442Z,18.80
2018-06-10T23:07:20.175Z,18.80
2018-06-10T23:09:48.842Z,18.70
2018-06-10T23:12:17.573Z,18.70
2018-06-10T23:14:46.285Z,18.60
2018-06-10T23:17:14.994Z,18.60
2018-06-10T23:19:43.677Z,18.60
2018-06-10T23:36:31.043Z,18.30
2018-06-10T23:38:59.729Z,18.20
2018-06-10T23:41:28.477Z,18.20
2018-06-10T23:43:58.123Z,18.20
2018-06-10T23:46:26.797Z,18.20
2018-06-10T23:48:55.526Z,18.20
2018-06-10T23:51:24.213Z,18.20
2018-06-10T23:53:52.939Z,18.20
2018-06-10T23:56:21.665Z,18.10
2018-06-10T23:58:50.408Z,18.10
